createdAt,value
2023-07-22T00:00:32.204Z,14.48
2023-07-22T00:02:59.032Z,14.50
2023-07-22T00:05:26.392Z,14.46
2023-07-22T00:07:53.799Z,14.44
2023-07-22T00:10:20.689Z,14.33
2023-07-22T00:12:47.566Z,14.38
2023-07-22T00:15:14.628Z,14.42
2023-07-22T00:17:42.576Z,14.50
2023-07-22T00:20:12.869Z,14.41
2023-07-22T00:22:43.615Z,14.42
2023-07-22T00:25:13.164Z,14.37
2023-07-22T00:27:40.100Z,14.31
2023-07-22T00:30:08.165Z,14.33
2023-07-22T00:32:35.134Z,14.37
2023-07-22T00:35:07.649Z,14.28
2023-07-22T00:37:34.697Z,14.27
2023-07-22T00:40:03.272Z,14.27
2023-07-22T00:42:29.804Z,14.24
2023-07-22T00:44:56.500Z,14.15
2023-07-22T00:47:23.296Z,14.05
2023-07-22T00:49:50.680Z,14.19
2023-07-22T00:52:17.731Z,14.12
2023-07-22T00:54:45.432Z,14.15
2023-07-22T00:57:13.465Z,14.29
2023-07-22T00:59:41.716Z,14.25
2023-07-22T01:02:08.728Z,14.18
2023-07-22T01:04:36.476Z,14.15
2023-07-22T01:07:08.309Z,14.22
2023-07-22T01:09:39.021Z,14.13
2023-07-22T01:12:09.830Z,14.17
2023-07-22T01:14:41.715Z,14.28
2023-07-22T01:17:12.644Z,14.20
2023-07-22T01:19:40.060Z,14.30
2023-07-22T01:22:11.967Z,14.28
2023-07-22T01:24:39.980Z,14.19
2023-07-22T01:27:11.237Z,14.13
2023-07-22T01:29:37.937Z,14.11
2023-07-22T01:32:04.847Z,14.02
2023-07-22T01:34:32.752Z,14.09
2023-07-22T01:37:00.931Z,14.22
2023-07-22T01:39:28.641Z,14.30
2023-07-22T01:41:55.298Z,14.38
2023-07-22T01:44:21.882Z,14.36
2023-07-22T01:46:48.495Z,14.37
2023-07-22T01:49:15.343Z,14.22
2023-07-22T01:51:42.109Z,14.26
2023-07-22T01:54:10.047Z,14.17
2023-07-22T01:56:37.382Z,14.33
2023-07-22T01:59:04.051Z,14.35
2023-07-22T02:01:30.949Z,14.40
2023-07-22T02:03:57.647Z,14.49
2023-07-22T02:06:24.775Z,14.47
2023-07-22T02:08:51.843Z,14.36
2023-07-22T02:11:18.807Z,14.27
2023-07-22T02:13:45.579Z,14.40
2023-07-22T02:16:15.116Z,14.39
2023-07-22T02:18:41.844Z,14.47
2023-07-22T02:21:08.527Z,14.49
2023-07-22T02:23:35.191Z,14.49
2023-07-22T02:26:02.348Z,14.49
2023-07-22T02:28:29.402Z,14.50
2023-07-22T02:30:56.113Z,14.56
2023-07-22T02:33:23.229Z,14.48
2023-07-22T02:35:50.362Z,14.51
2023-07-22T02:38:17.124Z,14.54
2023-07-22T02:40:44.993Z,14.57
2023-07-22T02:43:11.768Z,14.59
2023-07-22T02:45:38.819Z,14.61
2023-07-22T02:48:06.041Z,14.58
2023-07-22T02:50:32.717Z,14.57
2023-07-22T02:52:59.442Z,14.59
2023-07-22T02:55:26.222Z,14.60
2023-07-22T02:57:52.887Z,14.56
2023-07-22T03:00:24.665Z,14.48
2023-07-22T03:03:01.951Z,14.44
2023-07-22T03:05:29.617Z,14.46
2023-07-22T03:07:57.280Z,14.49
2023-07-22T03:10:25.043Z,14.53
2023-07-22T03:12:55.824Z,14.52
2023-07-22T03:15:27.197Z,14.58
2023-07-22T03:17:54.846Z,14.61
2023-07-22T03:20:23.150Z,14.62
2023-07-22T03:22:50.356Z,14.62
2023-07-22T03:25:20.528Z,14.68
2023-07-22T03:27:47.714Z,14.71
2023-07-22T03:30:16.884Z,14.68
2023-07-22T03:32:45.080Z,14.80
2023-07-22T03:35:14.956Z,14.75
2023-07-22T03:37:41.888Z,14.69
2023-07-22T03:40:20.425Z,14.74
2023-07-22T03:42:51.879Z,14.66
2023-07-22T03:45:19.489Z,14.68
2023-07-22T03:47:48.111Z,14.77
2023-07-22T03:50:15.015Z,14.79
2023-07-22T03:52:41.676Z,14.78
2023-07-22T03:55:08.695Z,14.81
2023-07-22T03:57:36.792Z,14.78
2023-07-22T04:00:05.348Z,14.74
2023-07-22T04:02:39.740Z,14.79
2023-07-22T04:05:06.703Z,14.80
2023-07-22T04:07:33.406Z,14.88
2023-07-22T04:10:00.234Z,14.92
2023-07-22T04:12:26.945Z,14.87
2023-07-22T04:14:53.574Z,14.91
2023-07-22T04:17:20.939Z,14.89
2023-07-22T04:19:47.611Z,14.71
2023-07-22T04:22:14.527Z,14.69
2023-07-22T04:24:41.246Z,14.62
2023-07-22T04:27:08.155Z,14.68
2023-07-22T04:29:34.799Z,14.73
2023-07-22T04:32:06.918Z,14.88
2023-07-22T04:34:33.863Z,14.88
2023-07-22T04:37:00.448Z,14.93
2023-07-22T04:39:27.437Z,15.01
2023-07-22T04:41:54.068Z,15.07
2023-07-22T04:44:21.102Z,15.01
2023-07-22T04:46:47.977Z,15.04
2023-07-22T04:49:18.591Z,15.10
2023-07-22T04:51:48.930Z,15.04
2023-07-22T04:54:16.019Z,14.99
2023-07-22T04:56:43.619Z,15.10
2023-07-22T04:59:10.824Z,15.08
2023-07-22T05:01:38.190Z,15.04
2023-07-22T05:04:06.038Z,15.14
2023-07-22T05:06:33.178Z,15.10
2023-07-22T05:08:59.925Z,15.11
2023-07-22T05:11:26.590Z,15.16
2023-07-22T05:13:53.240Z,15.19
2023-07-22T05:16:19.890Z,15.25
2023-07-22T05:18:46.650Z,15.31
2023-07-22T05:21:13.313Z,15.35
2023-07-22T05:23:40.065Z,15.26
2023-07-22T05:26:06.712Z,15.26
2023-07-22T05:28:33.352Z,15.31
2023-07-22T05:31:00.090Z,15.36
2023-07-22T05:33:27.170Z,15.28
2023-07-22T05:35:53.813Z,15.30
2023-07-22T05:38:20.355Z,15.30
2023-07-22T05:40:47.018Z,15.36
2023-07-22T05:43:13.751Z,15.38
2023-07-22T05:45:40.332Z,15.43
2023-07-22T05:48:07.166Z,15.42
2023-07-22T05:50:33.805Z,15.48
2023-07-22T05:53:00.499Z,15.56
2023-07-22T05:55:27.889Z,15.43
2023-07-22T05:57:55.151Z,15.44
2023-07-22T06:00:21.985Z,15.39
2023-07-22T06:02:49.735Z,15.55
2023-07-22T06:05:16.850Z,15.57
2023-07-22T06:07:43.538Z,15.81
2023-07-22T06:10:13.355Z,16.02
2023-07-22T06:12:40.709Z,16.09
2023-07-22T06:15:07.917Z,16.25
2023-07-22T06:17:34.969Z,16.16
2023-07-22T06:20:02.467Z,16.24
2023-07-22T06:22:29.149Z,16.29
2023-07-22T06:24:55.860Z,16.27
2023-07-22T06:27:23.113Z,16.32
2023-07-22T06:29:49.722Z,16.35
2023-07-22T06:32:16.425Z,16.43
2023-07-22T06:34:43.362Z,16.32
2023-07-22T06:37:09.894Z,16.35
2023-07-22T06:39:36.516Z,16.30
2023-07-22T06:42:03.654Z,16.41
2023-07-22T06:44:31.203Z,16.63
2023-07-22T06:46:58.111Z,16.70
2023-07-22T06:49:24.743Z,16.66
2023-07-22T06:51:51.396Z,16.74
2023-07-22T06:54:18.051Z,16.82
2023-07-22T06:56:44.615Z,16.93
2023-07-22T06:59:11.259Z,16.83
2023-07-22T07:01:37.872Z,16.88
2023-07-22T07:04:04.681Z,16.91
2023-07-22T07:06:31.542Z,16.96
2023-07-22T07:09:01.136Z,17.05
2023-07-22T07:11:30.460Z,16.90
2023-07-22T07:13:57.047Z,16.96
2023-07-22T07:16:27.820Z,16.99
2023-07-22T07:18:55.666Z,16.88
2023-07-22T07:21:23.030Z,16.91
2023-07-22T07:23:50.156Z,16.88
2023-07-22T07:26:16.873Z,17.06
2023-07-22T07:28:43.517Z,17.02
2023-07-22T07:31:10.249Z,17.12
2023-07-22T07:33:37.682Z,17.42
2023-07-22T07:36:05.327Z,17.60
2023-07-22T07:38:32.461Z,17.62
2023-07-22T07:41:02.185Z,17.84
2023-07-22T07:43:28.770Z,17.64
2023-07-22T07:46:18.937Z,17.68
2023-07-22T07:48:50.432Z,17.82
2023-07-22T07:51:18.095Z,18.05
2023-07-22T07:53:46.020Z,18.38
2023-07-22T07:56:13.127Z,18.29
2023-07-22T07:58:40.377Z,18.35
2023-07-22T08:01:07.763Z,18.21
2023-07-22T08:03:36.116Z,18.34
2023-07-22T08:06:03.923Z,18.30
2023-07-22T08:08:31.287Z,18.17
2023-07-22T08:11:09.802Z,18.27
2023-07-22T08:13:37.571Z,18.48
2023-07-22T08:16:09.517Z,18.42
2023-07-22T08:18:37.441Z,18.48
2023-07-22T08:21:06.282Z,18.48
2023-07-22T08:23:35.117Z,18.38
2023-07-22T08:26:01.899Z,18.34
2023-07-22T08:28:28.636Z,18.29
2023-07-22T08:30:56.869Z,18.65
2023-07-22T08:33:38.975Z,18.79
2023-07-22T08:36:08.673Z,18.94
2023-07-22T08:38:35.438Z,18.96
2023-07-22T08:41:02.079Z,19.05
2023-07-22T08:43:29.838Z,18.93
2023-07-22T08:46:00.993Z,19.30
2023-07-22T08:48:30.371Z,19.37
2023-07-22T08:51:03.745Z,19.09
2023-07-22T08:53:30.925Z,19.02
2023-07-22T08:55:57.676Z,19.33
2023-07-22T08:58:25.195Z,19.17
2023-07-22T09:00:52.261Z,19.20
2023-07-22T09:03:20.774Z,19.48
2023-07-22T09:05:47.583Z,19.34
2023-07-22T09:08:14.586Z,19.27
2023-07-22T09:10:42.810Z,19.37
2023-07-22T09:13:09.680Z,19.36
2023-07-22T09:15:37.557Z,19.48
2023-07-22T09:18:05.666Z,19.72
2023-07-22T09:20:32.430Z,19.44
2023-07-22T09:23:12.740Z,19.65
2023-07-22T09:25:42.549Z,20.05
2023-07-22T09:28:09.318Z,20.15
2023-07-22T09:30:39.502Z,19.97
2023-07-22T09:33:20.240Z,19.93
2023-07-22T09:35:48.855Z,19.91
2023-07-22T09:38:18.488Z,20.00
2023-07-22T09:40:45.121Z,20.30
2023-07-22T09:43:15.346Z,20.42
2023-07-22T09:45:41.999Z,20.45
2023-07-22T09:48:10.608Z,20.62
2023-07-22T09:50:37.979Z,20.56
2023-07-22T09:53:05.490Z,20.91
2023-07-22T09:55:33.282Z,21.02
2023-07-22T09:58:06.516Z,21.19
2023-07-22T10:00:36.968Z,21.14
2023-07-22T10:03:08.318Z,21.22
2023-07-22T10:05:36.488Z,21.13
2023-07-22T10:08:03.960Z,20.91
2023-07-22T10:10:36.258Z,21.14
2023-07-22T10:13:04.411Z,21.17
2023-07-22T10:15:34.250Z,21.17
2023-07-22T10:18:02.977Z,21.37
2023-07-22T10:20:30.622Z,21.34
2023-07-22T10:22:57.598Z,21.22
2023-07-22T10:25:24.829Z,21.08
2023-07-22T10:27:53.585Z,21.10
2023-07-22T10:30:20.185Z,21.40
2023-07-22T10:32:51.984Z,21.05
2023-07-22T10:35:24.310Z,21.14
2023-07-22T10:37:53.786Z,21.04
2023-07-22T10:40:21.450Z,21.15
2023-07-22T10:42:55.553Z,21.05
2023-07-22T10:45:30.120Z,21.21
2023-07-22T10:48:05.928Z,21.22
2023-07-22T10:50:48.960Z,21.13
2023-07-22T10:53:27.517Z,20.94
2023-07-22T10:56:03.325Z,21.10
2023-07-22T10:58:32.721Z,21.01
2023-07-22T11:01:25.001Z,21.11
2023-07-22T11:04:19.642Z,21.44
2023-07-22T11:06:47.091Z,21.45
2023-07-22T11:09:28.995Z,21.52
2023-07-22T11:11:55.688Z,21.41
2023-07-22T11:14:23.517Z,21.48
2023-07-22T11:16:50.421Z,21.53
2023-07-22T11:19:19.070Z,21.52
2023-07-22T11:21:47.390Z,21.69
2023-07-22T11:24:14.928Z,21.75
2023-07-22T11:26:42.919Z,21.86
2023-07-22T11:29:10.852Z,21.64
2023-07-22T11:31:46.429Z,21.97
2023-07-22T11:34:18.098Z,22.31
2023-07-22T11:36:45.215Z,22.27
2023-07-22T11:39:14.229Z,21.95
2023-07-22T11:41:44.778Z,22.21
2023-07-22T11:44:16.747Z,22.61
2023-07-22T11:47:06.714Z,22.92
2023-07-22T11:49:39.051Z,22.98
2023-07-22T11:52:10.482Z,22.77
2023-07-22T11:57:25.017Z,22.49
2023-07-22T11:59:57.203Z,22.46
2023-07-22T12:02:26.621Z,22.39
2023-07-22T12:04:53.388Z,22.48
2023-07-22T12:07:27.641Z,22.44
2023-07-22T12:09:57.005Z,22.39
2023-07-22T12:12:40.347Z,22.46
2023-07-22T12:15:19.035Z,22.44
2023-07-22T12:17:47.192Z,22.69
2023-07-22T12:20:15.016Z,22.68
2023-07-22T12:22:42.580Z,22.73
2023-07-22T12:25:09.806Z,23.02
2023-07-22T12:27:38.949Z,23.05
2023-07-22T12:30:08.083Z,22.86
2023-07-22T12:32:34.876Z,22.67
2023-07-22T12:35:01.795Z,22.46
2023-07-22T12:37:29.463Z,22.62
2023-07-22T12:39:57.341Z,22.87
2023-07-22T12:42:24.130Z,23.02
2023-07-22T12:44:50.713Z,23.11
2023-07-22T12:47:17.359Z,23.16
2023-07-22T12:49:43.960Z,23.22
2023-07-22T12:52:10.592Z,23.23
2023-07-22T12:54:37.559Z,23.44
2023-07-22T12:57:04.945Z,23.85
2023-07-22T12:59:31.695Z,23.87
2023-07-22T13:01:59.159Z,23.61
2023-07-22T13:04:26.152Z,23.73
2023-07-22T13:06:53.055Z,23.96
2023-07-22T13:09:20.337Z,23.72
2023-07-22T13:11:47.726Z,23.58
2023-07-22T13:14:15.216Z,23.87
2023-07-22T13:16:41.950Z,24.40
2023-07-22T13:19:08.923Z,24.28
2023-07-22T13:21:35.483Z,24.13
2023-07-22T13:24:02.036Z,24.05
2023-07-22T13:26:28.660Z,24.05
2023-07-22T13:28:55.280Z,24.27
2023-07-22T13:31:21.950Z,24.15
2023-07-22T13:33:48.525Z,24.12
2023-07-22T13:36:15.560Z,24.37
2023-07-22T13:38:42.148Z,24.31
2023-07-22T13:41:09.105Z,24.21
2023-07-22T13:43:35.756Z,24.38
2023-07-22T13:46:02.315Z,24.41
2023-07-22T13:48:28.966Z,24.54
2023-07-22T13:50:55.621Z,24.67
2023-07-22T13:53:22.209Z,24.38
2023-07-22T13:55:51.047Z,24.32
2023-07-22T13:58:19.415Z,24.20
2023-07-22T14:00:46.151Z,24.08
2023-07-22T14:03:12.927Z,24.09
2023-07-22T14:05:39.568Z,24.05
2023-07-22T14:08:06.162Z,24.07
2023-07-22T14:10:32.874Z,24.03
2023-07-22T14:12:59.490Z,24.05
2023-07-22T14:15:26.074Z,24.29
2023-07-22T14:17:52.714Z,24.39
2023-07-22T14:20:20.671Z,24.29
2023-07-22T14:22:47.653Z,24.51
2023-07-22T14:25:14.310Z,24.39
2023-07-22T14:27:41.426Z,24.54
2023-07-22T14:30:09.598Z,24.38
2023-07-22T14:32:37.162Z,24.14
2023-07-22T14:35:05.300Z,24.12
2023-07-22T14:37:31.953Z,23.88
2023-07-22T14:39:58.616Z,23.82
2023-07-22T14:42:25.257Z,23.77
2023-07-22T14:44:51.830Z,23.50
2023-07-22T14:47:18.454Z,23.64
2023-07-22T14:49:45.088Z,23.53
2023-07-22T14:52:11.671Z,23.70
2023-07-22T14:54:38.212Z,23.87
2023-07-22T14:57:05.277Z,23.87
2023-07-22T14:59:31.962Z,24.45
2023-07-22T15:01:59.135Z,23.96
2023-07-22T15:04:25.859Z,23.84
2023-07-22T15:06:52.708Z,23.75
2023-07-22T15:09:19.437Z,24.02
2023-07-22T15:11:46.071Z,23.96
2023-07-22T15:14:12.749Z,24.02
2023-07-22T15:16:39.388Z,24.20
2023-07-22T15:19:06.045Z,24.63
2023-07-22T15:21:32.657Z,24.11
2023-07-22T15:23:59.298Z,24.08
2023-07-22T15:26:25.868Z,24.31
2023-07-22T15:28:53.701Z,24.35
2023-07-22T15:31:21.087Z,24.37
2023-07-22T15:33:48.878Z,24.80
2023-07-22T15:36:15.994Z,24.92
2023-07-22T15:38:42.595Z,24.83
2023-07-22T15:41:09.894Z,24.68
2023-07-22T15:43:36.504Z,24.40
2023-07-22T15:46:03.210Z,24.07
2023-07-22T15:48:29.965Z,23.93
2023-07-22T15:50:56.784Z,24.10
2023-07-22T15:53:23.671Z,24.26
2023-07-22T15:55:50.456Z,24.57
2023-07-22T15:58:18.005Z,24.40
2023-07-22T16:00:44.579Z,24.34
2023-07-22T16:03:12.151Z,24.37
2023-07-22T16:05:38.950Z,24.22
2023-07-22T16:08:05.832Z,24.14
2023-07-22T16:10:35.793Z,23.76
2023-07-22T16:13:03.717Z,23.87
2023-07-22T16:15:32.279Z,23.85
2023-07-22T16:17:59.529Z,23.88
2023-07-22T16:20:26.604Z,23.91
2023-07-22T16:22:53.297Z,23.66
2023-07-22T16:25:20.043Z,23.68
2023-07-22T16:27:46.661Z,23.64
2023-07-22T16:30:13.616Z,23.58
2023-07-22T16:32:43.911Z,23.49
2023-07-22T16:35:13.468Z,23.43
2023-07-22T16:37:40.158Z,23.29
2023-07-22T16:40:08.736Z,23.30
2023-07-22T16:42:39.979Z,23.42
2023-07-22T16:45:08.393Z,23.09
2023-07-22T16:47:36.073Z,23.20
2023-07-22T16:50:03.752Z,23.08
2023-07-22T16:52:30.607Z,23.11
2023-07-22T16:54:57.237Z,23.29
2023-07-22T16:57:23.816Z,23.17
2023-07-22T16:59:50.524Z,23.19
2023-07-22T17:02:17.111Z,23.40
2023-07-22T17:04:43.694Z,23.25
2023-07-22T17:07:11.371Z,23.23
2023-07-22T17:09:37.984Z,23.09
2023-07-22T17:12:05.036Z,23.18
2023-07-22T17:14:31.721Z,23.04
2023-07-22T17:16:58.375Z,22.87
2023-07-22T17:19:25.088Z,22.35
2023-07-22T17:21:51.671Z,22.50
2023-07-22T17:24:18.399Z,22.66
2023-07-22T17:26:45.174Z,22.66
2023-07-22T17:29:11.931Z,22.96
2023-07-22T17:31:38.730Z,22.86
2023-07-22T17:34:05.338Z,22.73
2023-07-22T17:36:32.014Z,22.70
2023-07-22T17:38:58.622Z,22.80
2023-07-22T17:41:25.374Z,22.63
2023-07-22T17:43:52.180Z,22.58
2023-07-22T17:46:18.849Z,22.70
2023-07-22T17:48:47.684Z,22.69
2023-07-22T17:51:14.468Z,22.56
2023-07-22T17:53:41.114Z,22.67
2023-07-22T17:56:07.755Z,22.71
2023-07-22T17:58:34.389Z,22.60
2023-07-22T18:01:03.583Z,22.76
2023-07-22T18:03:30.919Z,22.78
2023-07-22T18:05:57.610Z,22.58
2023-07-22T18:08:25.891Z,22.58
2023-07-22T18:10:54.962Z,22.51
2023-07-22T18:13:21.589Z,22.34
2023-07-22T18:15:48.224Z,22.37
2023-07-22T18:18:14.926Z,22.44
2023-07-22T18:20:42.528Z,22.30
2023-07-22T18:23:09.153Z,22.36
2023-07-22T18:25:38.771Z,22.25
2023-07-22T18:28:05.371Z,22.37
2023-07-22T18:30:31.953Z,22.34
2023-07-22T18:32:58.638Z,22.35
2023-07-22T18:35:25.266Z,22.23
2023-07-22T18:37:51.962Z,22.15
2023-07-22T18:40:18.809Z,22.15
2023-07-22T18:42:45.476Z,22.14
2023-07-22T18:45:12.348Z,22.04
2023-07-22T18:47:39.135Z,22.00
2023-07-22T18:50:06.436Z,21.93
2023-07-22T18:52:33.023Z,21.90
2023-07-22T18:54:59.627Z,21.80
2023-07-22T18:57:26.158Z,21.65
2023-07-22T18:59:52.832Z,21.59
2023-07-22T19:02:19.415Z,21.71
2023-07-22T19:04:46.184Z,21.79
2023-07-22T19:07:12.774Z,21.73
2023-07-22T19:09:39.365Z,21.75
2023-07-22T19:12:06.344Z,21.66
2023-07-22T19:14:33.026Z,21.62
2023-07-22T19:16:59.585Z,21.78
2023-07-22T19:19:26.358Z,21.58
2023-07-22T19:21:54.720Z,21.52
2023-07-22T19:24:21.679Z,21.47
2023-07-22T19:26:48.348Z,21.48
2023-07-22T19:29:14.907Z,21.39
2023-07-22T19:31:41.483Z,21.33
2023-07-22T19:34:09.197Z,21.33
2023-07-22T19:36:36.158Z,21.30
2023-07-22T19:39:02.830Z,21.23
2023-07-22T19:41:29.738Z,21.23
2023-07-22T19:43:56.628Z,21.18
2023-07-22T19:46:23.219Z,21.13
2023-07-22T19:48:50.026Z,21.13
2023-07-22T19:51:16.897Z,21.08
2023-07-22T19:53:45.905Z,20.99
2023-07-22T19:56:13.351Z,20.98
2023-07-22T19:58:40.429Z,21.06
2023-07-22T20:01:07.245Z,21.01
2023-07-22T20:03:40.187Z,21.04
2023-07-22T20:06:07.338Z,21.06
2023-07-22T20:08:33.949Z,20.96
2023-07-22T20:11:00.579Z,20.83
2023-07-22T20:13:27.208Z,20.75
2023-07-22T20:15:53.812Z,20.62
2023-07-22T20:18:20.523Z,20.26
2023-07-22T20:20:47.118Z,20.29
2023-07-22T20:23:13.739Z,20.34
2023-07-22T20:25:40.909Z,20.23
2023-07-22T20:28:07.625Z,20.13
2023-07-22T20:30:34.543Z,20.07
2023-07-22T20:33:01.496Z,19.83
2023-07-22T20:35:28.213Z,19.89
2023-07-22T20:37:55.092Z,19.81
2023-07-22T20:40:21.740Z,19.67
2023-07-22T20:42:48.397Z,19.71
2023-07-22T20:45:18.149Z,19.57
2023-07-22T20:47:44.744Z,19.55
2023-07-22T20:50:12.775Z,19.65
2023-07-22T20:52:39.488Z,19.72
2023-07-22T20:55:07.865Z,19.70
2023-07-22T20:57:35.672Z,19.58
2023-07-22T21:00:04.432Z,19.62
2023-07-22T21:02:31.216Z,19.72
2023-07-22T21:04:57.879Z,19.63
2023-07-22T21:07:24.528Z,19.61
2023-07-22T21:09:51.153Z,19.65
2023-07-22T21:12:17.746Z,19.60
2023-07-22T21:14:44.411Z,19.63
2023-07-22T21:17:11.044Z,19.61
2023-07-22T21:19:37.669Z,19.56
2023-07-22T21:22:05.521Z,19.51
2023-07-22T21:24:32.098Z,19.47
2023-07-22T21:26:58.750Z,19.46
2023-07-22T21:29:25.501Z,19.34
2023-07-22T21:31:52.062Z,19.42
2023-07-22T21:34:18.649Z,19.13
2023-07-22T21:36:45.315Z,19.00
2023-07-22T21:39:11.882Z,18.88
2023-07-22T21:41:38.556Z,18.75
2023-07-22T21:44:05.268Z,18.82
2023-07-22T21:46:31.828Z,18.85
2023-07-22T21:48:58.402Z,18.92
2023-07-22T21:51:25.922Z,18.99
2023-07-22T21:53:52.828Z,18.94
2023-07-22T21:56:19.461Z,18.64
2023-07-22T21:58:46.018Z,18.70
2023-07-22T22:01:12.859Z,18.65
2023-07-22T22:03:39.537Z,18.54
2023-07-22T22:06:06.120Z,18.45
2023-07-22T22:08:32.958Z,18.34
2023-07-22T22:11:04.862Z,18.33
2023-07-22T22:13:33.741Z,18.42
2023-07-22T22:16:01.326Z,18.43
2023-07-22T22:18:28.381Z,18.48
2023-07-22T22:20:55.034Z,18.41
2023-07-22T22:23:21.695Z,18.29
2023-07-22T22:25:48.347Z,18.33
2023-07-22T22:28:14.959Z,18.45
2023-07-22T22:30:41.584Z,18.41
2023-07-22T22:33:08.959Z,18.54
2023-07-22T22:35:35.557Z,18.72
2023-07-22T22:38:02.134Z,18.68
2023-07-22T22:40:28.767Z,18.60
2023-07-22T22:42:55.413Z,18.67
2023-07-22T22:45:22.182Z,18.65
2023-07-22T22:47:48.776Z,18.58
2023-07-22T22:50:15.518Z,18.57
2023-07-22T22:52:47.968Z,18.37
2023-07-22T22:55:15.116Z,18.37
2023-07-22T22:57:41.947Z,18.41
2023-07-22T23:00:09.258Z,18.34
2023-07-22T23:02:36.011Z,18.29
2023-07-22T23:05:02.796Z,18.26
2023-07-22T23:07:31.417Z,18.20
2023-07-22T23:09:58.628Z,18.10
2023-07-22T23:12:25.224Z,18.20
2023-07-22T23:14:53.482Z,18.14
2023-07-22T23:17:20.195Z,18.22
2023-07-22T23:19:46.719Z,18.27
2023-07-22T23:22:13.437Z,18.31
2023-07-22T23:24:40.114Z,18.22
2023-07-22T23:27:07.083Z,18.28
2023-07-22T23:29:33.673Z,18.24
2023-07-22T23:32:00.273Z,18.15
2023-07-22T23:34:26.857Z,18.21
2023-07-22T23:36:53.457Z,18.15
2023-07-22T23:39:19.989Z,18.11
2023-07-22T23:41:46.597Z,18.18
2023-07-22T23:44:13.137Z,18.25
2023-07-22T23:46:39.737Z,18.03
2023-07-22T23:49:06.459Z,18.01
2023-07-22T23:51:33.037Z,17.94
2023-07-22T23:53:59.653Z,17.80
2023-07-22T23:56:26.277Z,17.72
2023-07-22T23:58:52.884Z,17.71
